sensor_id;sensor_type;location;lat;lon;timestamp;P1;durP1;ratioP1;P2;durP2;ratioP2
36257;SDS011;22294;52.044;4.582;2022-07-19T00:01:55;7.60;;;4.65;;
36257;SDS011;22294;52.044;4.582;2022-07-19T00:04:20;8.43;;;5.23;;
36257;SDS011;22294;52.044;4.582;2022-07-19T00:06:45;7.13;;;4.72;;
36257;SDS011;22294;52.044;4.582;2022-07-19T00:09:10;8.97;;;5.63;;
36257;SDS011;22294;52.044;4.582;2022-07-19T00:11:36;7.47;;;5.47;;
36257;SDS011;22294;52.044;4.582;2022-07-19T00:14:01;6.75;;;5.47;;
36257;SDS011;22294;52.044;4.582;2022-07-19T00:16:26;9.02;;;5.95;;
36257;SDS011;22294;52.044;4.582;2022-07-19T00:18:51;8.40;;;6.28;;
36257;SDS011;22294;52.044;4.582;2022-07-19T00:21:17;9.52;;;6.18;;
36257;SDS011;22294;52.044;4.582;2022-07-19T00:23:43;8.52;;;5.70;;
36257;SDS011;22294;52.044;4.582;2022-07-19T00:26:08;9.82;;;5.65;;
36257;SDS011;22294;52.044;4.582;2022-07-19T00:28:33;10.05;;;5.97;;
36257;SDS011;22294;52.044;4.582;2022-07-19T00:30:58;9.10;;;5.68;;
36257;SDS011;22294;52.044;4.582;2022-07-19T00:33:24;10.65;;;6.35;;
36257;SDS011;22294;52.044;4.582;2022-07-19T00:35:49;10.88;;;7.10;;
36257;SDS011;22294;52.044;4.582;2022-07-19T00:38:14;14.57;;;7.80;;
36257;SDS011;22294;52.044;4.582;2022-07-19T00:40:40;7.60;;;6.23;;
36257;SDS011;22294;52.044;4.582;2022-07-19T00:43:07;12.73;;;7.63;;
36257;SDS011;22294;52.044;4.582;2022-07-19T00:45:33;9.02;;;7.03;;
36257;SDS011;22294;52.044;4.582;2022-07-19T00:47:58;12.60;;;8.20;;
36257;SDS011;22294;52.044;4.582;2022-07-19T00:50:24;8.13;;;6.20;;
36257;SDS011;22294;52.044;4.582;2022-07-19T00:52:50;10.25;;;6.47;;
36257;SDS011;22294;52.044;4.582;2022-07-19T00:55:20;11.85;;;6.75;;
36257;SDS011;22294;52.044;4.582;2022-07-19T01:00:12;12.48;;;7.13;;
36257;SDS011;22294;52.044;4.582;2022-07-19T01:02:40;10.43;;;7.75;;
36257;SDS011;22294;52.044;4.582;2022-07-19T01:05:06;12.57;;;8.15;;
36257;SDS011;22294;52.044;4.582;2022-07-19T01:07:32;13.20;;;8.23;;
36257;SDS011;22294;52.044;4.582;2022-07-19T01:10:00;10.52;;;7.38;;
36257;SDS011;22294;52.044;4.582;2022-07-19T01:12:26;11.77;;;7.80;;
36257;SDS011;22294;52.044;4.582;2022-07-19T01:14:56;10.23;;;7.18;;
36257;SDS011;22294;52.044;4.582;2022-07-19T01:17:22;12.63;;;7.80;;
36257;SDS011;22294;52.044;4.582;2022-07-19T01:19:48;10.88;;;7.13;;
36257;SDS011;22294;52.044;4.582;2022-07-19T01:22:13;12.60;;;7.20;;
36257;SDS011;22294;52.044;4.582;2022-07-19T01:24:38;11.93;;;6.80;;
36257;SDS011;22294;52.044;4.582;2022-07-19T01:27:04;8.68;;;7.28;;
36257;SDS011;22294;52.044;4.582;2022-07-19T01:29:31;11.00;;;7.32;;
36257;SDS011;22294;52.044;4.582;2022-07-19T01:31:56;12.43;;;8.27;;
36257;SDS011;22294;52.044;4.582;2022-07-19T01:34:22;12.60;;;8.80;;
36257;SDS011;22294;52.044;4.582;2022-07-19T01:36:47;13.95;;;7.65;;
36257;SDS011;22294;52.044;4.582;2022-07-19T01:39:12;10.85;;;7.63;;
36257;SDS011;22294;52.044;4.582;2022-07-19T01:41:38;10.93;;;7.77;;
36257;SDS011;22294;52.044;4.582;2022-07-19T01:44:03;14.57;;;8.77;;
36257;SDS011;22294;52.044;4.582;2022-07-19T01:46:28;12.98;;;7.95;;
36257;SDS011;22294;52.044;4.582;2022-07-19T01:48:54;12.37;;;8.40;;
36257;SDS011;22294;52.044;4.582;2022-07-19T01:51:19;11.30;;;8.27;;
36257;SDS011;22294;52.044;4.582;2022-07-19T01:53:44;12.13;;;8.13;;
36257;SDS011;22294;52.044;4.582;2022-07-19T01:56:09;9.75;;;7.00;;
36257;SDS011;22294;52.044;4.582;2022-07-19T01:58:35;8.65;;;6.57;;
36257;SDS011;22294;52.044;4.582;2022-07-19T02:01:00;12.55;;;7.85;;
36257;SDS011;22294;52.044;4.582;2022-07-19T02:03:26;10.35;;;7.53;;
36257;SDS011;22294;52.044;4.582;2022-07-19T02:05:51;10.43;;;6.53;;
36257;SDS011;22294;52.044;4.582;2022-07-19T02:08:16;9.30;;;7.40;;
36257;SDS011;22294;52.044;4.582;2022-07-19T02:10:42;12.10;;;6.60;;
36257;SDS011;22294;52.044;4.582;2022-07-19T02:13:07;9.02;;;6.85;;
36257;SDS011;22294;52.044;4.582;2022-07-19T02:15:32;11.63;;;7.53;;
36257;SDS011;22294;52.044;4.582;2022-07-19T02:17:58;10.38;;;7.18;;
36257;SDS011;22294;52.044;4.582;2022-07-19T02:20:24;7.78;;;6.82;;
36257;SDS011;22294;52.044;4.582;2022-07-19T02:22:49;10.35;;;7.15;;
36257;SDS011;22294;52.044;4.582;2022-07-19T02:25:15;11.02;;;7.63;;
36257;SDS011;22294;52.044;4.582;2022-07-19T02:27:41;11.13;;;7.78;;
36257;SDS011;22294;52.044;4.582;2022-07-19T02:30:06;8.35;;;6.55;;
36257;SDS011;22294;52.044;4.582;2022-07-19T02:32:32;11.35;;;7.85;;
36257;SDS011;22294;52.044;4.582;2022-07-19T02:34:58;11.07;;;8.32;;
36257;SDS011;22294;52.044;4.582;2022-07-19T02:37:23;12.95;;;8.38;;
36257;SDS011;22294;52.044;4.582;2022-07-19T02:39:49;13.85;;;8.68;;
36257;SDS011;22294;52.044;4.582;2022-07-19T02:42:14;8.95;;;7.53;;
36257;SDS011;22294;52.044;4.582;2022-07-19T02:44:39;11.60;;;8.23;;
36257;SDS011;22294;52.044;4.582;2022-07-19T02:47:04;16.23;;;9.63;;
36257;SDS011;22294;52.044;4.582;2022-07-19T02:49:30;13.60;;;9.88;;
36257;SDS011;22294;52.044;4.582;2022-07-19T02:51:55;17.60;;;10.87;;
36257;SDS011;22294;52.044;4.582;2022-07-19T02:54:20;19.88;;;11.10;;
36257;SDS011;22294;52.044;4.582;2022-07-19T02:56:46;17.25;;;11.98;;
36257;SDS011;22294;52.044;4.582;2022-07-19T02:59:11;19.00;;;11.13;;
36257;SDS011;22294;52.044;4.582;2022-07-19T03:01:36;18.40;;;11.27;;
36257;SDS011;22294;52.044;4.582;2022-07-19T03:04:02;16.98;;;11.70;;
36257;SDS011;22294;52.044;4.582;2022-07-19T03:06:27;18.38;;;12.25;;
36257;SDS011;22294;52.044;4.582;2022-07-19T03:08:52;19.55;;;12.13;;
36257;SDS011;22294;52.044;4.582;2022-07-19T03:11:18;21.83;;;11.68;;
36257;SDS011;22294;52.044;4.582;2022-07-19T03:13:43;18.02;;;12.35;;
36257;SDS011;22294;52.044;4.582;2022-07-19T03:16:09;18.58;;;12.38;;
36257;SDS011;22294;52.044;4.582;2022-07-19T03:18:34;19.17;;;12.55;;
36257;SDS011;22294;52.044;4.582;2022-07-19T03:21:00;20.23;;;12.35;;
36257;SDS011;22294;52.044;4.582;2022-07-19T03:23:32;19.25;;;12.63;;
36257;SDS011;22294;52.044;4.582;2022-07-19T03:25:58;19.17;;;13.05;;
36257;SDS011;22294;52.044;4.582;2022-07-19T03:28:24;22.00;;;13.35;;
36257;SDS011;22294;52.044;4.582;2022-07-19T03:30:49;19.42;;;13.25;;
36257;SDS011;22294;52.044;4.582;2022-07-19T03:33:14;22.10;;;14.18;;
36257;SDS011;22294;52.044;4.582;2022-07-19T03:35:41;19.30;;;14.02;;
36257;SDS011;22294;52.044;4.582;2022-07-19T03:38:08;23.05;;;15.02;;
36257;SDS011;22294;52.044;4.582;2022-07-19T03:40:33;21.50;;;13.10;;
36257;SDS011;22294;52.044;4.582;2022-07-19T03:42:59;19.57;;;13.23;;
36257;SDS011;22294;52.044;4.582;2022-07-19T03:45:24;21.50;;;13.90;;
36257;SDS011;22294;52.044;4.582;2022-07-19T03:47:49;18.75;;;14.30;;
36257;SDS011;22294;52.044;4.582;2022-07-19T03:50:14;23.40;;;13.68;;
36257;SDS011;22294;52.044;4.582;2022-07-19T03:52:40;19.05;;;13.68;;
36257;SDS011;22294;52.044;4.582;2022-07-19T03:55:05;22.03;;;14.30;;
36257;SDS011;22294;52.044;4.582;2022-07-19T03:57:30;21.55;;;13.90;;
36257;SDS011;22294;52.044;4.582;2022-07-19T03:59:56;18.27;;;13.63;;
36257;SDS011;22294;52.044;4.582;2022-07-19T04:02:21;19.05;;;12.85;;
36257;SDS011;22294;52.044;4.582;2022-07-19T04:04:46;17.15;;;12.23;;
36257;SDS011;22294;52.044;4.582;2022-07-19T04:07:12;17.52;;;11.65;;
36257;SDS011;22294;52.044;4.582;2022-07-19T04:09:37;19.95;;;11.05;;
36257;SDS011;22294;52.044;4.582;2022-07-19T04:12:02;17.20;;;11.03;;
36257;SDS011;22294;52.044;4.582;2022-07-19T04:14:27;15.68;;;11.23;;
36257;SDS011;22294;52.044;4.582;2022-07-19T04:16:53;13.50;;;10.88;;
36257;SDS011;22294;52.044;4.582;2022-07-19T04:19:18;20.83;;;11.05;;
36257;SDS011;22294;52.044;4.582;2022-07-19T04:21:43;19.98;;;11.85;;
36257;SDS011;22294;52.044;4.582;2022-07-19T04:24:09;15.00;;;10.13;;
36257;SDS011;22294;52.044;4.582;2022-07-19T04:26:34;15.90;;;10.82;;
36257;SDS011;22294;52.044;4.582;2022-07-19T04:28:59;16.80;;;11.15;;
36257;SDS011;22294;52.044;4.582;2022-07-19T04:31:24;16.33;;;10.63;;
36257;SDS011;22294;52.044;4.582;2022-07-19T04:33:50;17.02;;;11.02;;
36257;SDS011;22294;52.044;4.582;2022-07-19T04:36:15;16.67;;;10.05;;
36257;SDS011;22294;52.044;4.582;2022-07-19T04:38:41;13.95;;;9.80;;
36257;SDS011;22294;52.044;4.582;2022-07-19T04:41:06;15.73;;;10.55;;
36257;SDS011;22294;52.044;4.582;2022-07-19T04:43:31;14.48;;;9.63;;
36257;SDS011;22294;52.044;4.582;2022-07-19T04:45:57;13.97;;;9.80;;
36257;SDS011;22294;52.044;4.582;2022-07-19T04:48:24;15.02;;;9.82;;
36257;SDS011;22294;52.044;4.582;2022-07-19T04:50:50;16.65;;;10.50;;
36257;SDS011;22294;52.044;4.582;2022-07-19T04:53:15;20.60;;;10.90;;
36257;SDS011;22294;52.044;4.582;2022-07-19T04:55:41;19.33;;;10.98;;
36257;SDS011;22294;52.044;4.582;2022-07-19T04:58:06;17.77;;;11.70;;
36257;SDS011;22294;52.044;4.582;2022-07-19T05:00:31;14.10;;;10.13;;
36257;SDS011;22294;52.044;4.582;2022-07-19T05:02:56;16.58;;;10.40;;
36257;SDS011;22294;52.044;4.582;2022-07-19T05:05:22;15.73;;;9.90;;
36257;SDS011;22294;52.044;4.582;2022-07-19T05:07:48;17.67;;;11.00;;
36257;SDS011;22294;52.044;4.582;2022-07-19T05:10:14;19.42;;;12.75;;
36257;SDS011;22294;52.044;4.582;2022-07-19T05:12:39;19.08;;;12.98;;
36257;SDS011;22294;52.044;4.582;2022-07-19T05:15:06;18.38;;;12.10;;
36257;SDS011;22294;52.044;4.582;2022-07-19T05:17:32;18.52;;;12.57;;
36257;SDS011;22294;52.044;4.582;2022-07-19T05:19:58;17.15;;;11.15;;
36257;SDS011;22294;52.044;4.582;2022-07-19T05:22:23;20.05;;;12.65;;
36257;SDS011;22294;52.044;4.582;2022-07-19T05:24:50;18.98;;;11.98;;
36257;SDS011;22294;52.044;4.582;2022-07-19T05:27:17;25.13;;;12.18;;
36257;SDS011;22294;52.044;4.582;2022-07-19T05:29:42;19.55;;;11.70;;
36257;SDS011;22294;52.044;4.582;2022-07-19T05:32:08;24.77;;;13.30;;
36257;SDS011;22294;52.044;4.582;2022-07-19T05:34:33;19.33;;;12.20;;
36257;SDS011;22294;52.044;4.582;2022-07-19T05:36:58;18.20;;;11.83;;
36257;SDS011;22294;52.044;4.582;2022-07-19T05:39:23;25.00;;;11.93;;
36257;SDS011;22294;52.044;4.582;2022-07-19T05:41:49;19.52;;;11.07;;
36257;SDS011;22294;52.044;4.582;2022-07-19T05:44:14;20.33;;;11.30;;
36257;SDS011;22294;52.044;4.582;2022-07-19T05:46:39;19.10;;;10.73;;
36257;SDS011;22294;52.044;4.582;2022-07-19T05:49:08;19.88;;;10.95;;
36257;SDS011;22294;52.044;4.582;2022-07-19T05:51:35;17.58;;;11.23;;
36257;SDS011;22294;52.044;4.582;2022-07-19T05:54:01;17.75;;;10.75;;
36257;SDS011;22294;52.044;4.582;2022-07-19T05:56:27;19.70;;;11.55;;
36257;SDS011;22294;52.044;4.582;2022-07-19T05:58:53;18.42;;;10.75;;
36257;SDS011;22294;52.044;4.582;2022-07-19T06:01:18;18.67;;;9.75;;
36257;SDS011;22294;52.044;4.582;2022-07-19T06:03:45;22.98;;;10.75;;
36257;SDS011;22294;52.044;4.582;2022-07-19T06:06:15;18.73;;;10.70;;
36257;SDS011;22294;52.044;4.582;2022-07-19T06:08:40;16.95;;;10.73;;
36257;SDS011;22294;52.044;4.582;2022-07-19T06:11:06;17.70;;;10.43;;
36257;SDS011;22294;52.044;4.582;2022-07-19T06:13:31;18.50;;;10.85;;
36257;SDS011;22294;52.044;4.582;2022-07-19T06:15:57;19.50;;;10.93;;
36257;SDS011;22294;52.044;4.582;2022-07-19T06:18:22;14.83;;;10.03;;
36257;SDS011;22294;52.044;4.582;2022-07-19T06:20:47;16.13;;;9.83;;
36257;SDS011;22294;52.044;4.582;2022-07-19T06:23:13;15.50;;;10.20;;
36257;SDS011;22294;52.044;4.582;2022-07-19T06:25:39;21.95;;;11.60;;
36257;SDS011;22294;52.044;4.582;2022-07-19T06:28:05;17.65;;;11.52;;
36257;SDS011;22294;52.044;4.582;2022-07-19T06:30:30;21.33;;;13.00;;
36257;SDS011;22294;52.044;4.582;2022-07-19T06:32:55;21.52;;;12.57;;
36257;SDS011;22294;52.044;4.582;2022-07-19T06:35:21;18.70;;;12.15;;
36257;SDS011;22294;52.044;4.582;2022-07-19T06:37:46;20.08;;;11.18;;
36257;SDS011;22294;52.044;4.582;2022-07-19T06:40:11;20.07;;;11.17;;
36257;SDS011;22294;52.044;4.582;2022-07-19T06:42:37;19.60;;;12.10;;
36257;SDS011;22294;52.044;4.582;2022-07-19T06:45:02;18.52;;;11.70;;
36257;SDS011;22294;52.044;4.582;2022-07-19T06:47:29;20.10;;;11.88;;
36257;SDS011;22294;52.044;4.582;2022-07-19T06:49:54;18.58;;;11.95;;
36257;SDS011;22294;52.044;4.582;2022-07-19T06:52:19;19.00;;;11.65;;
36257;SDS011;22294;52.044;4.582;2022-07-19T06:54:45;17.55;;;11.05;;
36257;SDS011;22294;52.044;4.582;2022-07-19T06:57:10;23.02;;;13.02;;
36257;SDS011;22294;52.044;4.582;2022-07-19T06:59:35;17.17;;;11.35;;
36257;SDS011;22294;52.044;4.582;2022-07-19T07:02:01;19.80;;;13.02;;
36257;SDS011;22294;52.044;4.582;2022-07-19T07:04:27;23.95;;;12.68;;
36257;SDS011;22294;52.044;4.582;2022-07-19T07:06:52;18.38;;;11.18;;
36257;SDS011;22294;52.044;4.582;2022-07-19T07:09:17;19.25;;;10.60;;
36257;SDS011;22294;52.044;4.582;2022-07-19T07:11:42;15.33;;;10.93;;
36257;SDS011;22294;52.044;4.582;2022-07-19T07:14:08;15.35;;;10.52;;
36257;SDS011;22294;52.044;4.582;2022-07-19T07:16:33;14.52;;;10.98;;
36257;SDS011;22294;52.044;4.582;2022-07-19T07:18:58;23.33;;;12.32;;
36257;SDS011;22294;52.044;4.582;2022-07-19T07:21:24;23.13;;;12.77;;
36257;SDS011;22294;52.044;4.582;2022-07-19T07:23:49;20.20;;;13.00;;
36257;SDS011;22294;52.044;4.582;2022-07-19T07:26:14;19.93;;;9.70;;
36257;SDS011;22294;52.044;4.582;2022-07-19T07:28:40;21.38;;;9.63;;
36257;SDS011;22294;52.044;4.582;2022-07-19T07:31:05;17.63;;;8.90;;
36257;SDS011;22294;52.044;4.582;2022-07-19T07:33:31;15.88;;;9.05;;
36257;SDS011;22294;52.044;4.582;2022-07-19T07:35:56;12.93;;;8.30;;
36257;SDS011;22294;52.044;4.582;2022-07-19T07:38:21;19.05;;;8.60;;
36257;SDS011;22294;52.044;4.582;2022-07-19T07:40:47;14.80;;;7.78;;
36257;SDS011;22294;52.044;4.582;2022-07-19T07:43:12;12.88;;;7.93;;
36257;SDS011;22294;52.044;4.582;2022-07-19T07:45:37;10.38;;;6.95;;
36257;SDS011;22294;52.044;4.582;2022-07-19T07:48:03;18.27;;;9.23;;
36257;SDS011;22294;52.044;4.582;2022-07-19T07:50:28;14.27;;;8.95;;
36257;SDS011;22294;52.044;4.582;2022-07-19T07:52:54;11.90;;;8.40;;
36257;SDS011;22294;52.044;4.582;2022-07-19T07:55:19;14.32;;;10.32;;
36257;SDS011;22294;52.044;4.582;2022-07-19T07:57:44;19.00;;;10.60;;
36257;SDS011;22294;52.044;4.582;2022-07-19T08:00:10;19.35;;;11.23;;
36257;SDS011;22294;52.044;4.582;2022-07-19T08:02:46;16.00;;;10.27;;
36257;SDS011;22294;52.044;4.582;2022-07-19T08:05:14;17.65;;;10.57;;
36257;SDS011;22294;52.044;4.582;2022-07-19T08:07:39;16.75;;;10.32;;
36257;SDS011;22294;52.044;4.582;2022-07-19T08:10:05;15.63;;;10.75;;
36257;SDS011;22294;52.044;4.582;2022-07-19T08:12:32;18.38;;;10.95;;
36257;SDS011;22294;52.044;4.582;2022-07-19T08:14:58;15.32;;;10.57;;
36257;SDS011;22294;52.044;4.582;2022-07-19T08:17:24;17.33;;;11.70;;
36257;SDS011;22294;52.044;4.582;2022-07-19T08:19:49;19.60;;;10.73;;
36257;SDS011;22294;52.044;4.582;2022-07-19T08:22:15;12.65;;;8.50;;
36257;SDS011;22294;52.044;4.582;2022-07-19T08:24:40;14.13;;;9.15;;
36257;SDS011;22294;52.044;4.582;2022-07-19T08:27:06;16.63;;;11.15;;
36257;SDS011;22294;52.044;4.582;2022-07-19T08:29:31;16.40;;;9.20;;
36257;SDS011;22294;52.044;4.582;2022-07-19T08:31:56;15.38;;;9.07;;
36257;SDS011;22294;52.044;4.582;2022-07-19T08:34:22;13.23;;;9.07;;
36257;SDS011;22294;52.044;4.582;2022-07-19T08:36:47;14.10;;;8.70;;
36257;SDS011;22294;52.044;4.582;2022-07-19T08:39:12;14.77;;;8.87;;
36257;SDS011;22294;52.044;4.582;2022-07-19T08:41:38;17.25;;;9.30;;
36257;SDS011;22294;52.044;4.582;2022-07-19T08:44:03;15.27;;;7.93;;
36257;SDS011;22294;52.044;4.582;2022-07-19T08:46:29;13.15;;;9.40;;
36257;SDS011;22294;52.044;4.582;2022-07-19T08:48:54;14.07;;;9.15;;
36257;SDS011;22294;52.044;4.582;2022-07-19T08:51:21;12.23;;;7.30;;
36257;SDS011;22294;52.044;4.582;2022-07-19T08:53:47;15.10;;;7.25;;
36257;SDS011;22294;52.044;4.582;2022-07-19T08:56:13;13.02;;;7.25;;
36257;SDS011;22294;52.044;4.582;2022-07-19T08:58:58;12.43;;;7.80;;
36257;SDS011;22294;52.044;4.582;2022-07-19T09:01:23;15.32;;;7.57;;
36257;SDS011;22294;52.044;4.582;2022-07-19T09:09:08;9.27;;;5.95;;
36257;SDS011;22294;52.044;4.582;2022-07-19T09:11:35;12.60;;;5.72;;
36257;SDS011;22294;52.044;4.582;2022-07-19T09:14:06;9.38;;;4.55;;
36257;SDS011;22294;52.044;4.582;2022-07-19T09:16:50;9.05;;;4.25;;
36257;SDS011;22294;52.044;4.582;2022-07-19T09:19:38;8.65;;;4.05;;
36257;SDS011;22294;52.044;4.582;2022-07-19T09:24:36;7.47;;;3.90;;
36257;SDS011;22294;52.044;4.582;2022-07-19T09:27:07;6.93;;;3.75;;
36257;SDS011;22294;52.044;4.582;2022-07-19T09:29:40;7.70;;;3.38;;
36257;SDS011;22294;52.044;4.582;2022-07-19T09:32:08;6.53;;;3.78;;
36257;SDS011;22294;52.044;4.582;2022-07-19T09:34:39;12.52;;;3.75;;
36257;SDS011;22294;52.044;4.582;2022-07-19T09:37:10;7.60;;;3.40;;
36257;SDS011;22294;52.044;4.582;2022-07-19T09:39:37;6.10;;;3.85;;
36257;SDS011;22294;52.044;4.582;2022-07-19T09:42:06;13.00;;;4.10;;
36257;SDS011;22294;52.044;4.582;2022-07-19T09:44:34;6.50;;;3.25;;
36257;SDS011;22294;52.044;4.582;2022-07-19T09:47:00;5.88;;;2.80;;
36257;SDS011;22294;52.044;4.582;2022-07-19T09:49:25;7.97;;;2.85;;
36257;SDS011;22294;52.044;4.582;2022-07-19T09:51:51;7.43;;;3.05;;
36257;SDS011;22294;52.044;4.582;2022-07-19T09:54:19;9.85;;;3.22;;
36257;SDS011;22294;52.044;4.582;2022-07-19T09:56:46;7.20;;;2.72;;
36257;SDS011;22294;52.044;4.582;2022-07-19T09:59:13;11.13;;;3.30;;
36257;SDS011;22294;52.044;4.582;2022-07-19T10:01:39;4.40;;;2.70;;
36257;SDS011;22294;52.044;4.582;2022-07-19T10:04:15;8.52;;;3.20;;
36257;SDS011;22294;52.044;4.582;2022-07-19T10:06:43;9.38;;;3.05;;
36257;SDS011;22294;52.044;4.582;2022-07-19T10:09:11;5.43;;;2.78;;
36257;SDS011;22294;52.044;4.582;2022-07-19T10:11:38;6.40;;;2.58;;
36257;SDS011;22294;52.044;4.582;2022-07-19T10:14:03;4.60;;;3.25;;
36257;SDS011;22294;52.044;4.582;2022-07-19T10:16:44;7.50;;;2.40;;
36257;SDS011;22294;52.044;4.582;2022-07-19T10:22:05;5.07;;;2.75;;
36257;SDS011;22294;52.044;4.582;2022-07-19T10:32:27;8.30;;;2.70;;
36257;SDS011;22294;52.044;4.582;2022-07-19T10:35:13;5.15;;;2.30;;
36257;SDS011;22294;52.044;4.582;2022-07-19T10:37:46;10.60;;;2.95;;
36257;SDS011;22294;52.044;4.582;2022-07-19T10:40:13;7.20;;;2.75;;
36257;SDS011;22294;52.044;4.582;2022-07-19T10:45:31;6.28;;;2.53;;
36257;SDS011;22294;52.044;4.582;2022-07-19T10:47:57;7.25;;;2.63;;
36257;SDS011;22294;52.044;4.582;2022-07-19T10:50:24;5.00;;;2.47;;
36257;SDS011;22294;52.044;4.582;2022-07-19T10:53:07;6.00;;;2.72;;
36257;SDS011;22294;52.044;4.582;2022-07-19T10:55:32;5.65;;;2.17;;
36257;SDS011;22294;52.044;4.582;2022-07-19T11:00:31;5.00;;;2.20;;
36257;SDS011;22294;52.044;4.582;2022-07-19T11:05:55;5.35;;;2.10;;
36257;SDS011;22294;52.044;4.582;2022-07-19T11:08:34;7.55;;;2.35;;
36257;SDS011;22294;52.044;4.582;2022-07-19T11:11:11;3.35;;;2.28;;
36257;SDS011;22294;52.044;4.582;2022-07-19T11:13:39;7.53;;;2.30;;
36257;SDS011;22294;52.044;4.582;2022-07-19T11:16:07;6.15;;;2.65;;
36257;SDS011;22294;52.044;4.582;2022-07-19T11:18:32;5.35;;;2.45;;
36257;SDS011;22294;52.044;4.582;2022-07-19T11:20:59;5.30;;;2.42;;
36257;SDS011;22294;52.044;4.582;2022-07-19T11:23:29;7.03;;;2.35;;
36257;SDS011;22294;52.044;4.582;2022-07-19T11:28:37;7.07;;;2.72;;
36257;SDS011;22294;52.044;4.582;2022-07-19T11:33:59;6.22;;;2.60;;
36257;SDS011;22294;52.044;4.582;2022-07-19T11:36:26;4.30;;;2.65;;
36257;SDS011;22294;52.044;4.582;2022-07-19T11:38:53;6.70;;;2.78;;
36257;SDS011;22294;52.044;4.582;2022-07-19T11:41:31;12.95;;;2.85;;
36257;SDS011;22294;52.044;4.582;2022-07-19T11:43:59;5.78;;;2.90;;
36257;SDS011;22294;52.044;4.582;2022-07-19T11:46:30;8.10;;;2.75;;
36257;SDS011;22294;52.044;4.582;2022-07-19T11:49:00;4.28;;;2.70;;
36257;SDS011;22294;52.044;4.582;2022-07-19T11:51:27;7.03;;;2.25;;
36257;SDS011;22294;52.044;4.582;2022-07-19T11:53:54;5.75;;;2.55;;
36257;SDS011;22294;52.044;4.582;2022-07-19T11:56:21;5.65;;;2.35;;
36257;SDS011;22294;52.044;4.582;2022-07-19T11:58:52;7.18;;;2.60;;
36257;SDS011;22294;52.044;4.582;2022-07-19T12:01:22;3.67;;;2.55;;
36257;SDS011;22294;52.044;4.582;2022-07-19T12:03:52;7.97;;;2.83;;
36257;SDS011;22294;52.044;4.582;2022-07-19T12:09:06;6.63;;;2.92;;
36257;SDS011;22294;52.044;4.582;2022-07-19T12:11:46;4.93;;;2.75;;
36257;SDS011;22294;52.044;4.582;2022-07-19T12:14:27;7.97;;;2.67;;
36257;SDS011;22294;52.044;4.582;2022-07-19T12:19:38;8.73;;;2.95;;
36257;SDS011;22294;52.044;4.582;2022-07-19T12:22:04;6.18;;;2.80;;
36257;SDS011;22294;52.044;4.582;2022-07-19T12:24:29;7.05;;;2.90;;
36257;SDS011;22294;52.044;4.582;2022-07-19T12:27:00;8.52;;;2.70;;
36257;SDS011;22294;52.044;4.582;2022-07-19T12:32:10;7.53;;;2.75;;
36257;SDS011;22294;52.044;4.582;2022-07-19T12:34:45;6.13;;;2.40;;
36257;SDS011;22294;52.044;4.582;2022-07-19T12:37:22;10.15;;;3.00;;
36257;SDS011;22294;52.044;4.582;2022-07-19T12:39:56;4.88;;;2.63;;
36257;SDS011;22294;52.044;4.582;2022-07-19T12:42:24;3.55;;;2.63;;
36257;SDS011;22294;52.044;4.582;2022-07-19T12:44:50;4.40;;;2.80;;
36257;SDS011;22294;52.044;4.582;2022-07-19T12:47:16;7.57;;;3.25;;
36257;SDS011;22294;52.044;4.582;2022-07-19T12:49:42;7.53;;;2.70;;
36257;SDS011;22294;52.044;4.582;2022-07-19T12:52:11;4.20;;;2.70;;
36257;SDS011;22294;52.044;4.582;2022-07-19T12:54:37;8.50;;;2.95;;
36257;SDS011;22294;52.044;4.582;2022-07-19T12:57:03;3.78;;;2.60;;
36257;SDS011;22294;52.044;4.582;2022-07-19T12:59:29;9.75;;;3.03;;
36257;SDS011;22294;52.044;4.582;2022-07-19T13:02:10;5.22;;;2.45;;
36257;SDS011;22294;52.044;4.582;2022-07-19T13:04:38;4.63;;;2.70;;
36257;SDS011;22294;52.044;4.582;2022-07-19T13:07:05;7.32;;;3.20;;
36257;SDS011;22294;52.044;4.582;2022-07-19T13:09:31;5.72;;;2.80;;
36257;SDS011;22294;52.044;4.582;2022-07-19T13:11:57;7.70;;;2.67;;
36257;SDS011;22294;52.044;4.582;2022-07-19T13:14:24;4.82;;;2.25;;
36257;SDS011;22294;52.044;4.582;2022-07-19T13:16:49;4.72;;;2.35;;
36257;SDS011;22294;52.044;4.582;2022-07-19T13:19:15;9.77;;;2.85;;
36257;SDS011;22294;52.044;4.582;2022-07-19T13:21:40;4.95;;;2.35;;
36257;SDS011;22294;52.044;4.582;2022-07-19T13:24:05;5.72;;;2.70;;
36257;SDS011;22294;52.044;4.582;2022-07-19T13:26:31;5.18;;;2.30;;
36257;SDS011;22294;52.044;4.582;2022-07-19T13:28:56;6.43;;;2.25;;
36257;SDS011;22294;52.044;4.582;2022-07-19T13:31:21;4.20;;;2.70;;
36257;SDS011;22294;52.044;4.582;2022-07-19T13:33:47;3.33;;;2.38;;
36257;SDS011;22294;52.044;4.582;2022-07-19T13:36:12;6.25;;;2.15;;
36257;SDS011;22294;52.044;4.582;2022-07-19T13:38:37;4.20;;;2.47;;
36257;SDS011;22294;52.044;4.582;2022-07-19T13:41:05;5.38;;;2.60;;
36257;SDS011;22294;52.044;4.582;2022-07-19T13:43:31;3.97;;;2.30;;
36257;SDS011;22294;52.044;4.582;2022-07-19T13:45:56;4.05;;;2.20;;
36257;SDS011;22294;52.044;4.582;2022-07-19T13:48:25;6.78;;;2.40;;
36257;SDS011;22294;52.044;4.582;2022-07-19T13:50:51;6.65;;;2.30;;
36257;SDS011;22294;52.044;4.582;2022-07-19T13:53:16;8.75;;;2.42;;
36257;SDS011;22294;52.044;4.582;2022-07-19T13:55:42;4.82;;;2.13;;
36257;SDS011;22294;52.044;4.582;2022-07-19T13:58:07;5.75;;;2.28;;
36257;SDS011;22294;52.044;4.582;2022-07-19T14:00:32;6.25;;;2.47;;
36257;SDS011;22294;52.044;4.582;2022-07-19T14:02:58;4.53;;;2.28;;
36257;SDS011;22294;52.044;4.582;2022-07-19T14:05:23;4.15;;;2.15;;
36257;SDS011;22294;52.044;4.582;2022-07-19T14:07:48;3.17;;;2.42;;
36257;SDS011;22294;52.044;4.582;2022-07-19T14:10:14;4.95;;;2.35;;
36257;SDS011;22294;52.044;4.582;2022-07-19T14:12:39;7.57;;;3.17;;
36257;SDS011;22294;52.044;4.582;2022-07-19T14:15:05;7.78;;;2.10;;
36257;SDS011;22294;52.044;4.582;2022-07-19T14:17:31;6.25;;;2.53;;
36257;SDS011;22294;52.044;4.582;2022-07-19T14:19:56;4.30;;;2.45;;
36257;SDS011;22294;52.044;4.582;2022-07-19T14:22:21;6.25;;;2.60;;
36257;SDS011;22294;52.044;4.582;2022-07-19T14:24:47;6.88;;;2.63;;
36257;SDS011;22294;52.044;4.582;2022-07-19T14:27:12;4.28;;;2.50;;
36257;SDS011;22294;52.044;4.582;2022-07-19T14:29:37;4.07;;;2.90;;
36257;SDS011;22294;52.044;4.582;2022-07-19T14:32:03;7.55;;;2.92;;
36257;SDS011;22294;52.044;4.582;2022-07-19T14:34:28;4.40;;;2.72;;
36257;SDS011;22294;52.044;4.582;2022-07-19T14:36:54;5.63;;;2.60;;
36257;SDS011;22294;52.044;4.582;2022-07-19T14:39:19;5.07;;;2.60;;
36257;SDS011;22294;52.044;4.582;2022-07-19T14:41:44;6.22;;;2.67;;
36257;SDS011;22294;52.044;4.582;2022-07-19T14:44:10;7.53;;;2.65;;
36257;SDS011;22294;52.044;4.582;2022-07-19T14:46:35;6.25;;;3.05;;
36257;SDS011;22294;52.044;4.582;2022-07-19T14:49:00;6.68;;;2.92;;
36257;SDS011;22294;52.044;4.582;2022-07-19T14:51:26;4.70;;;2.88;;
36257;SDS011;22294;52.044;4.582;2022-07-19T14:53:51;7.60;;;2.67;;
36257;SDS011;22294;52.044;4.582;2022-07-19T14:56:16;5.55;;;3.05;;
36257;SDS011;22294;52.044;4.582;2022-07-19T14:58:42;3.65;;;2.63;;
36257;SDS011;22294;52.044;4.582;2022-07-19T15:01:07;5.47;;;2.95;;
36257;SDS011;22294;52.044;4.582;2022-07-19T15:03:33;4.47;;;2.75;;
36257;SDS011;22294;52.044;4.582;2022-07-19T15:05:58;3.45;;;2.58;;
36257;SDS011;22294;52.044;4.582;2022-07-19T15:08:24;4.93;;;2.67;;
36257;SDS011;22294;52.044;4.582;2022-07-19T15:10:49;9.20;;;3.20;;
36257;SDS011;22294;52.044;4.582;2022-07-19T15:13:14;6.53;;;3.13;;
36257;SDS011;22294;52.044;4.582;2022-07-19T15:15:39;6.63;;;2.83;;